sensor_id;sensor_type;location;lat;lon;timestamp;pressure;altitude;pressure_sealevel;temperature;humidity
76229;BME280;65021;53.174;18.160;2022-12-18T00:01:16;102723.90;;;-4.30;83.33
76229;BME280;65021;53.174;18.160;2022-12-18T00:03:44;102717.98;;;-4.25;83.31
76229;BME280;65021;53.174;18.160;2022-12-18T00:06:11;102716.32;;;-4.25;83.28
76229;BME280;65021;53.174;18.160;2022-12-18T00:08:38;102721.17;;;-4.24;83.11
76229;BME280;65021;53.174;18.160;2022-12-18T00:11:11;102722.26;;;-4.24;83.29
76229;BME280;65021;53.174;18.160;2022-12-18T00:13:38;102735.19;;;-4.28;83.33
76229;BME280;65021;53.174;18.160;2022-12-18T00:16:07;102738.62;;;-4.31;83.18
76229;BME280;65021;53.174;18.160;2022-12-18T00:18:34;102744.08;;;-4.31;83.32
76229;BME280;65021;53.174;18.160;2022-12-18T00:21:07;102749.83;;;-4.33;83.29
76229;BME280;65021;53.174;18.160;2022-12-18T00:23:35;102746.75;;;-4.33;83.30
76229;BME280;65021;53.174;18.160;2022-12-18T00:26:04;102746.05;;;-4.28;83.28
76229;BME280;65021;53.174;18.160;2022-12-18T00:28:31;102750.81;;;-4.24;83.16
76229;BME280;65021;53.174;18.160;2022-12-18T00:31:02;102748.79;;;-4.18;83.17
76229;BME280;65021;53.174;18.160;2022-12-18T00:33:30;102753.81;;;-4.12;83.26
76229;BME280;65021;53.174;18.160;2022-12-18T00:36:04;102760.23;;;-4.10;83.09
76229;BME280;65021;53.174;18.160;2022-12-18T00:38:33;102759.66;;;-4.13;83.09
76229;BME280;65021;53.174;18.160;2022-12-18T00:41:00;102765.04;;;-4.17;83.29
76229;BME280;65021;53.174;18.160;2022-12-18T00:43:27;102771.98;;;-4.21;83.31
76229;BME280;65021;53.174;18.160;2022-12-18T00:45:54;102774.02;;;-4.22;83.36
76229;BME280;65021;53.174;18.160;2022-12-18T00:48:21;102775.23;;;-4.23;83.32
76229;BME280;65021;53.174;18.160;2022-12-18T00:50:48;102778.17;;;-4.27;83.33
76229;BME280;65021;53.174;18.160;2022-12-18T00:53:16;102779.97;;;-4.29;83.45
76229;BME280;65021;53.174;18.160;2022-12-18T00:55:43;102781.04;;;-4.32;83.49
76229;BME280;65021;53.174;18.160;2022-12-18T00:58:11;102787.16;;;-4.34;83.48
76229;BME280;65021;53.174;18.160;2022-12-18T01:00:38;102782.23;;;-4.36;83.56
76229;BME280;65021;53.174;18.160;2022-12-18T01:03:05;102784.27;;;-4.31;83.42
76229;BME280;65021;53.174;18.160;2022-12-18T01:05:32;102787.33;;;-4.25;83.43
76229;BME280;65021;53.174;18.160;2022-12-18T01:07:59;102795.48;;;-4.20;83.15
76229;BME280;65021;53.174;18.160;2022-12-18T01:10:26;102793.65;;;-4.17;83.21
76229;BME280;65021;53.174;18.160;2022-12-18T01:12:52;102796.39;;;-4.15;83.13
76229;BME280;65021;53.174;18.160;2022-12-18T01:15:19;102796.39;;;-4.15;83.19
76229;BME280;65021;53.174;18.160;2022-12-18T01:17:46;102801.29;;;-4.18;83.21
76229;BME280;65021;53.174;18.160;2022-12-18T01:20:13;102807.60;;;-4.20;83.23
76229;BME280;65021;53.174;18.160;2022-12-18T01:22:40;102804.86;;;-4.23;83.39
76229;BME280;65021;53.174;18.160;2022-12-18T01:25:07;102807.32;;;-4.24;83.32
76229;BME280;65021;53.174;18.160;2022-12-18T01:27:34;102803.91;;;-4.27;83.44
76229;BME280;65021;53.174;18.160;2022-12-18T01:30:01;102813.81;;;-4.29;83.43
76229;BME280;65021;53.174;18.160;2022-12-18T01:32:30;102816.48;;;-4.26;83.35
76229;BME280;65021;53.174;18.160;2022-12-18T01:34:57;102810.17;;;-4.21;83.26
76229;BME280;65021;53.174;18.160;2022-12-18T01:37:23;102812.61;;;-4.17;83.33
76229;BME280;65021;53.174;18.160;2022-12-18T01:39:52;102818.30;;;-4.15;83.40
76229;BME280;65021;53.174;18.160;2022-12-18T01:42:21;102823.92;;;-4.16;83.39
76229;BME280;65021;53.174;18.160;2022-12-18T01:44:55;102830.73;;;-4.14;83.47
76229;BME280;65021;53.174;18.160;2022-12-18T01:50:16;102828.23;;;-4.17;83.59
76229;BME280;65021;53.174;18.160;2022-12-18T01:52:48;102828.48;;;-4.19;83.62
76229;BME280;65021;53.174;18.160;2022-12-18T01:55:18;102827.33;;;-4.20;83.66
76229;BME280;65021;53.174;18.160;2022-12-18T01:57:47;102827.36;;;-4.21;83.61
76229;BME280;65021;53.174;18.160;2022-12-18T02:00:17;102834.03;;;-4.20;83.89
76229;BME280;65021;53.174;18.160;2022-12-18T02:02:45;102838.73;;;-4.20;83.69
76229;BME280;65021;53.174;18.160;2022-12-18T02:05:19;102842.38;;;-4.13;83.60
76229;BME280;65021;53.174;18.160;2022-12-18T02:13:20;102844.08;;;-3.92;83.45
76229;BME280;65021;53.174;18.160;2022-12-18T02:16:05;102847.08;;;-3.94;83.42
76229;BME280;65021;53.174;18.160;2022-12-18T02:18:41;102844.71;;;-3.96;83.45
76229;BME280;65021;53.174;18.160;2022-12-18T02:21:30;102842.98;;;-3.97;83.59
76229;BME280;65021;53.174;18.160;2022-12-18T02:24:27;102840.02;;;-3.99;83.48
76229;BME280;65021;53.174;18.160;2022-12-18T02:27:04;102843.08;;;-4.01;83.56
76229;BME280;65021;53.174;18.160;2022-12-18T02:29:51;102849.31;;;-4.05;83.60
76229;BME280;65021;53.174;18.160;2022-12-18T02:32:22;102851.13;;;-4.11;83.69
76229;BME280;65021;53.174;18.160;2022-12-18T02:34:52;102858.76;;;-4.14;83.74
76229;BME280;65021;53.174;18.160;2022-12-18T02:37:22;102858.80;;;-4.18;83.73
76229;BME280;65021;53.174;18.160;2022-12-18T02:39:51;102860.86;;;-4.18;83.79
76229;BME280;65021;53.174;18.160;2022-12-18T02:42:19;102861.23;;;-4.13;83.75
76229;BME280;65021;53.174;18.160;2022-12-18T02:44:49;102864.33;;;-4.08;83.57
76229;BME280;65021;53.174;18.160;2022-12-18T02:47:21;102866.74;;;-4.03;83.46
76229;BME280;65021;53.174;18.160;2022-12-18T02:57:33;102869.02;;;-3.99;83.50
76229;BME280;65021;53.174;18.160;2022-12-18T03:00:16;102873.98;;;-4.03;83.56
76229;BME280;65021;53.174;18.160;2022-12-18T03:02:49;102870.27;;;-4.10;83.57
76229;BME280;65021;53.174;18.160;2022-12-18T03:05:22;102875.98;;;-4.14;83.56
76229;BME280;65021;53.174;18.160;2022-12-18T03:08:06;102870.29;;;-4.19;83.66
76229;BME280;65021;53.174;18.160;2022-12-18T03:10:40;102879.30;;;-4.18;83.69
76229;BME280;65021;53.174;18.160;2022-12-18T03:13:12;102881.15;;;-4.13;83.59
76229;BME280;65021;53.174;18.160;2022-12-18T03:15:44;102880.96;;;-4.10;83.59
76229;BME280;65021;53.174;18.160;2022-12-18T03:18:35;102884.58;;;-4.08;83.54
76229;BME280;65021;53.174;18.160;2022-12-18T03:21:05;102888.52;;;-4.07;83.54
76229;BME280;65021;53.174;18.160;2022-12-18T03:23:39;102889.82;;;-4.10;83.60
76229;BME280;65021;53.174;18.160;2022-12-18T03:26:11;102892.42;;;-4.11;83.51
76229;BME280;65021;53.174;18.160;2022-12-18T03:28:44;102898.21;;;-4.14;83.54
76229;BME280;65021;53.174;18.160;2022-12-18T03:31:14;102902.60;;;-4.15;83.61
76229;BME280;65021;53.174;18.160;2022-12-18T03:33:57;102908.22;;;-4.17;83.66
76229;BME280;65021;53.174;18.160;2022-12-18T03:36:26;102911.50;;;-4.20;83.75
76229;BME280;65021;53.174;18.160;2022-12-18T03:38:53;102915.84;;;-4.23;83.65
76229;BME280;65021;53.174;18.160;2022-12-18T03:41:32;102922.38;;;-4.23;83.80
76229;BME280;65021;53.174;18.160;2022-12-18T03:46:48;102930.23;;;-4.27;83.80
76229;BME280;65021;53.174;18.160;2022-12-18T03:49:27;102931.36;;;-4.28;83.71
76229;BME280;65021;53.174;18.160;2022-12-18T03:52:04;102934.73;;;-4.21;83.58
76229;BME280;65021;53.174;18.160;2022-12-18T03:54:32;102935.38;;;-4.15;83.64
76229;BME280;65021;53.174;18.160;2022-12-18T03:57:10;102934.21;;;-4.08;83.44
76229;BME280;65021;53.174;18.160;2022-12-18T03:59:39;102943.21;;;-4.05;83.43
76229;BME280;65021;53.174;18.160;2022-12-18T04:02:07;102942.23;;;-4.03;83.48
76229;BME280;65021;53.174;18.160;2022-12-18T04:04:37;102940.69;;;-4.07;83.51
76229;BME280;65021;53.174;18.160;2022-12-18T04:07:05;102943.80;;;-4.08;83.62
76229;BME280;65021;53.174;18.160;2022-12-18T04:09:32;102942.78;;;-4.09;83.61
76229;BME280;65021;53.174;18.160;2022-12-18T04:12:00;102942.09;;;-4.12;83.64
76229;BME280;65021;53.174;18.160;2022-12-18T04:14:26;102944.54;;;-4.14;83.64
76229;BME280;65021;53.174;18.160;2022-12-18T04:16:53;102944.66;;;-4.16;83.58
76229;BME280;65021;53.174;18.160;2022-12-18T04:19:20;102949.30;;;-4.17;83.66
76229;BME280;65021;53.174;18.160;2022-12-18T04:21:46;102950.05;;;-4.20;83.57
76229;BME280;65021;53.174;18.160;2022-12-18T04:24:13;102946.05;;;-4.23;83.64
76229;BME280;65021;53.174;18.160;2022-12-18T04:26:39;102950.86;;;-4.25;83.70
76229;BME280;65021;53.174;18.160;2022-12-18T04:29:06;102950.63;;;-4.27;83.71
76229;BME280;65021;53.174;18.160;2022-12-18T04:31:32;102953.14;;;-4.29;83.69
76229;BME280;65021;53.174;18.160;2022-12-18T04:33:59;102954.67;;;-4.30;83.65
76229;BME280;65021;53.174;18.160;2022-12-18T04:36:25;102954.61;;;-4.29;83.59
76229;BME280;65021;53.174;18.160;2022-12-18T04:38:52;102958.09;;;-4.25;83.55
76229;BME280;65021;53.174;18.160;2022-12-18T04:41:18;102965.44;;;-4.20;83.38
76229;BME280;65021;53.174;18.160;2022-12-18T04:43:45;102963.77;;;-4.14;83.37
76229;BME280;65021;53.174;18.160;2022-12-18T04:46:11;102964.30;;;-4.11;83.36
76229;BME280;65021;53.174;18.160;2022-12-18T04:48:38;102965.00;;;-4.14;83.40
76229;BME280;65021;53.174;18.160;2022-12-18T04:51:05;102973.16;;;-4.17;83.32
76229;BME280;65021;53.174;18.160;2022-12-18T04:53:32;102975.52;;;-4.19;83.36
76229;BME280;65021;53.174;18.160;2022-12-18T04:56:08;102973.34;;;-4.25;83.42
76229;BME280;65021;53.174;18.160;2022-12-18T04:58:36;102978.34;;;-4.33;83.62
76229;BME280;65021;53.174;18.160;2022-12-18T05:01:03;102979.38;;;-4.40;83.42
76229;BME280;65021;53.174;18.160;2022-12-18T05:03:30;102985.08;;;-4.47;83.47
76229;BME280;65021;53.174;18.160;2022-12-18T05:05:56;102983.95;;;-4.52;83.49
76229;BME280;65021;53.174;18.160;2022-12-18T05:08:23;102984.17;;;-4.59;83.40
76229;BME280;65021;53.174;18.160;2022-12-18T05:10:50;102985.89;;;-4.67;83.56
76229;BME280;65021;53.174;18.160;2022-12-18T05:13:24;102985.20;;;-4.73;83.51
76229;BME280;65021;53.174;18.160;2022-12-18T05:15:52;102987.58;;;-4.76;83.47
76229;BME280;65021;53.174;18.160;2022-12-18T05:18:19;102990.05;;;-4.78;83.27
76229;BME280;65021;53.174;18.160;2022-12-18T05:20:45;102990.58;;;-4.78;83.38
76229;BME280;65021;53.174;18.160;2022-12-18T05:23:12;102991.11;;;-4.78;83.29
76229;BME280;65021;53.174;18.160;2022-12-18T05:25:38;102995.85;;;-4.81;83.32
76229;BME280;65021;53.174;18.160;2022-12-18T05:28:05;103006.70;;;-4.84;83.42
76229;BME280;65021;53.174;18.160;2022-12-18T05:30:31;103013.16;;;-4.89;83.45
76229;BME280;65021;53.174;18.160;2022-12-18T05:32:58;103023.80;;;-4.95;83.30
76229;BME280;65021;53.174;18.160;2022-12-18T05:35:24;103029.48;;;-5.02;83.34
76229;BME280;65021;53.174;18.160;2022-12-18T05:37:51;103033.95;;;-5.07;83.54
76229;BME280;65021;53.174;18.160;2022-12-18T05:40:17;103037.95;;;-5.14;83.53
76229;BME280;65021;53.174;18.160;2022-12-18T05:42:44;103037.96;;;-5.20;83.48
76229;BME280;65021;53.174;18.160;2022-12-18T05:45:11;103036.41;;;-5.27;83.63
76229;BME280;65021;53.174;18.160;2022-12-18T05:47:37;103039.66;;;-5.34;83.70
76229;BME280;65021;53.174;18.160;2022-12-18T05:50:04;103042.89;;;-5.39;83.80
76229;BME280;65021;53.174;18.160;2022-12-18T05:52:31;103050.36;;;-5.44;83.84
76229;BME280;65021;53.174;18.160;2022-12-18T05:54:57;103055.33;;;-5.48;83.84
76229;BME280;65021;53.174;18.160;2022-12-18T05:57:25;103059.06;;;-5.47;83.80
76229;BME280;65021;53.174;18.160;2022-12-18T05:59:51;103059.33;;;-5.42;83.75
76229;BME280;65021;53.174;18.160;2022-12-18T06:02:18;103064.03;;;-5.37;83.71
76229;BME280;65021;53.174;18.160;2022-12-18T06:04:47;103062.59;;;-5.34;83.58
76229;BME280;65021;53.174;18.160;2022-12-18T06:07:13;103066.51;;;-5.33;83.68
76229;BME280;65021;53.174;18.160;2022-12-18T06:09:40;103069.38;;;-5.35;83.58
76229;BME280;65021;53.174;18.160;2022-12-18T06:12:06;103070.65;;;-5.42;83.59
76229;BME280;65021;53.174;18.160;2022-12-18T06:14:33;103075.91;;;-5.45;83.71
76229;BME280;65021;53.174;18.160;2022-12-18T06:16:59;103077.91;;;-5.51;83.71
76229;BME280;65021;53.174;18.160;2022-12-18T06:19:26;103080.81;;;-5.58;83.70
76229;BME280;65021;53.174;18.160;2022-12-18T06:21:53;103082.77;;;-5.67;83.60
76229;BME280;65021;53.174;18.160;2022-12-18T06:24:19;103095.92;;;-5.76;83.50
76229;BME280;65021;53.174;18.160;2022-12-18T06:26:46;103102.55;;;-5.84;83.61
76229;BME280;65021;53.174;18.160;2022-12-18T06:29:12;103107.48;;;-5.92;83.59
76229;BME280;65021;53.174;18.160;2022-12-18T06:31:39;103110.47;;;-5.97;83.58
76229;BME280;65021;53.174;18.160;2022-12-18T06:34:05;103110.27;;;-6.00;83.68
76229;BME280;65021;53.174;18.160;2022-12-18T06:36:32;103111.60;;;-6.02;83.72
76229;BME280;65021;53.174;18.160;2022-12-18T06:38:59;103112.69;;;-5.98;83.84
76229;BME280;65021;53.174;18.160;2022-12-18T06:41:25;103115.41;;;-5.91;83.63
76229;BME280;65021;53.174;18.160;2022-12-18T06:43:52;103124.55;;;-5.84;83.55
76229;BME280;65021;53.174;18.160;2022-12-18T06:46:19;103124.69;;;-5.77;83.61
76229;BME280;65021;53.174;18.160;2022-12-18T06:48:49;103122.56;;;-5.68;83.69
76229;BME280;65021;53.174;18.160;2022-12-18T06:51:20;103131.54;;;-5.58;83.43
76229;BME280;65021;53.174;18.160;2022-12-18T06:53:47;103131.29;;;-5.53;83.43
76229;BME280;65021;53.174;18.160;2022-12-18T06:56:13;103132.55;;;-5.53;83.18
76229;BME280;65021;53.174;18.160;2022-12-18T06:58:40;103137.38;;;-5.58;83.07
76229;BME280;65021;53.174;18.160;2022-12-18T07:01:09;103142.84;;;-5.66;82.91
76229;BME280;65021;53.174;18.160;2022-12-18T07:03:38;103148.48;;;-5.76;82.98
76229;BME280;65021;53.174;18.160;2022-12-18T07:06:05;103156.29;;;-5.86;83.03
76229;BME280;65021;53.174;18.160;2022-12-18T07:08:32;103155.94;;;-5.93;83.03
76229;BME280;65021;53.174;18.160;2022-12-18T07:11:03;103163.70;;;-6.00;83.30
76229;BME280;65021;53.174;18.160;2022-12-18T07:13:29;103168.39;;;-6.07;83.26
76229;BME280;65021;53.174;18.160;2022-12-18T07:16:03;103173.30;;;-6.15;83.37
76229;BME280;65021;53.174;18.160;2022-12-18T07:18:30;103177.20;;;-6.20;83.35
76229;BME280;65021;53.174;18.160;2022-12-18T07:20:56;103176.70;;;-6.24;83.47
76229;BME280;65021;53.174;18.160;2022-12-18T07:23:23;103182.72;;;-6.29;83.53
76229;BME280;65021;53.174;18.160;2022-12-18T07:25:49;103183.91;;;-6.34;83.57
76229;BME280;65021;53.174;18.160;2022-12-18T07:28:16;103185.44;;;-6.36;83.46
76229;BME280;65021;53.174;18.160;2022-12-18T07:30:42;103183.19;;;-6.31;83.44
76229;BME280;65021;53.174;18.160;2022-12-18T07:33:09;103190.42;;;-6.24;83.37
76229;BME280;65021;53.174;18.160;2022-12-18T07:35:35;103196.66;;;-6.20;83.39
76229;BME280;65021;53.174;18.160;2022-12-18T07:38:03;103201.17;;;-6.16;83.34
76229;BME280;65021;53.174;18.160;2022-12-18T07:40:30;103202.60;;;-6.12;83.38
76229;BME280;65021;53.174;18.160;2022-12-18T07:42:56;103199.09;;;-6.07;83.38
76229;BME280;65021;53.174;18.160;2022-12-18T07:45:23;103202.74;;;-5.98;83.46
76229;BME280;65021;53.174;18.160;2022-12-18T07:47:49;103205.25;;;-5.94;83.26
76229;BME280;65021;53.174;18.160;2022-12-18T07:50:16;103203.78;;;-5.90;83.30
76229;BME280;65021;53.174;18.160;2022-12-18T07:52:42;103215.63;;;-5.89;83.20
76229;BME280;65021;53.174;18.160;2022-12-18T07:55:09;103215.96;;;-5.88;83.15
76229;BME280;65021;53.174;18.160;2022-12-18T07:57:35;103222.60;;;-5.85;83.20
76229;BME280;65021;53.174;18.160;2022-12-18T08:00:02;103221.14;;;-5.78;83.23
76229;BME280;65021;53.174;18.160;2022-12-18T08:02:31;103219.55;;;-5.75;83.19
76229;BME280;65021;53.174;18.160;2022-12-18T08:04:58;103219.57;;;-5.76;83.11
76229;BME280;65021;53.174;18.160;2022-12-18T08:07:24;103218.98;;;-5.78;83.15
76229;BME280;65021;53.174;18.160;2022-12-18T08:09:51;103217.61;;;-5.79;83.25
76229;BME280;65021;53.174;18.160;2022-12-18T08:12:17;103227.05;;;-5.83;83.26
76229;BME280;65021;53.174;18.160;2022-12-18T08:14:44;103235.21;;;-5.91;83.23
76229;BME280;65021;53.174;18.160;2022-12-18T08:17:10;103242.30;;;-5.99;83.23
76229;BME280;65021;53.174;18.160;2022-12-18T08:19:37;103242.05;;;-6.01;83.27
76229;BME280;65021;53.174;18.160;2022-12-18T08:22:03;103241.91;;;-6.02;83.35
76229;BME280;65021;53.174;18.160;2022-12-18T08:24:30;103244.81;;;-6.02;83.39
76229;BME280;65021;53.174;18.160;2022-12-18T08:26:57;103246.85;;;-5.99;83.40
76229;BME280;65021;53.174;18.160;2022-12-18T08:29:23;103249.91;;;-5.89;83.36
76229;BME280;65021;53.174;18.160;2022-12-18T08:31:50;103255.83;;;-5.81;83.18
76229;BME280;65021;53.174;18.160;2022-12-18T08:34:16;103257.38;;;-5.74;83.23
76229;BME280;65021;53.174;18.160;2022-12-18T08:36:43;103257.77;;;-5.71;83.13
76229;BME280;65021;53.174;18.160;2022-12-18T08:39:09;103265.34;;;-5.74;83.08
76229;BME280;65021;53.174;18.160;2022-12-18T08:41:36;103270.60;;;-5.78;83.03
76229;BME280;65021;53.174;18.160;2022-12-18T08:44:02;103273.48;;;-5.81;83.03
76229;BME280;65021;53.174;18.160;2022-12-18T08:46:48;103274.73;;;-5.87;83.10
76229;BME280;65021;53.174;18.160;2022-12-18T08:49:14;103278.98;;;-5.89;83.17
76229;BME280;65021;53.174;18.160;2022-12-18T08:51:41;103278.98;;;-5.89;83.21
76229;BME280;65021;53.174;18.160;2022-12-18T08:54:11;103278.88;;;-5.94;83.03
76229;BME280;65021;53.174;18.160;2022-12-18T08:56:38;103281.50;;;-5.96;83.06
76229;BME280;65021;53.174;18.160;2022-12-18T08:59:04;103274.18;;;-5.97;82.97
76229;BME280;65021;53.174;18.160;2022-12-18T09:01:31;103278.02;;;-5.98;82.89
76229;BME280;65021;53.174;18.160;2022-12-18T09:03:57;103272.55;;;-5.93;82.88
76229;BME280;65021;53.174;18.160;2022-12-18T09:06:24;103267.93;;;-5.88;83.00
76229;BME280;65021;53.174;18.160;2022-12-18T09:08:52;103265.39;;;-5.81;82.98
76229;BME280;65021;53.174;18.160;2022-12-18T09:11:24;103266.21;;;-5.73;82.98
76229;BME280;65021;53.174;18.160;2022-12-18T09:13:52;103272.08;;;-5.75;82.86
76229;BME280;65021;53.174;18.160;2022-12-18T09:16:19;103276.99;;;-5.79;82.80
76229;BME280;65021;53.174;18.160;2022-12-18T09:18:47;103276.77;;;-5.82;82.97
76229;BME280;65021;53.174;18.160;2022-12-18T09:21:16;103279.65;;;-5.78;83.04
76229;BME280;65021;53.174;18.160;2022-12-18T09:23:43;103273.77;;;-5.70;83.14
76229;BME280;65021;53.174;18.160;2022-12-18T09:26:10;103261.99;;;-5.59;83.11
76229;BME280;65021;53.174;18.160;2022-12-18T09:28:36;103257.34;;;-5.53;82.98
76229;BME280;65021;53.174;18.160;2022-12-18T09:31:07;103254.55;;;-5.45;82.84
76229;BME280;65021;53.174;18.160;2022-12-18T09:33:35;103250.30;;;-5.33;82.74
76229;BME280;65021;53.174;18.160;2022-12-18T09:36:05;103242.29;;;-5.13;82.84
76229;BME280;65021;53.174;18.160;2022-12-18T09:38:33;103239.17;;;-4.93;82.78
76229;BME280;65021;53.174;18.160;2022-12-18T09:41:05;103241.44;;;-4.85;82.68
76229;BME280;65021;53.174;18.160;2022-12-18T09:43:46;103247.70;;;-4.78;82.65
76229;BME280;65021;53.174;18.160;2022-12-18T09:46:28;103250.11;;;-4.72;82.50
76229;BME280;65021;53.174;18.160;2022-12-18T09:48:59;103254.83;;;-4.76;82.20
76229;BME280;65021;53.174;18.160;2022-12-18T09:51:56;103258.15;;;-4.83;82.04
76229;BME280;65021;53.174;18.160;2022-12-18T09:54:33;103253.25;;;-4.80;82.10
76229;BME280;65021;53.174;18.160;2022-12-18T09:57:02;103253.88;;;-4.78;82.21
76229;BME280;65021;53.174;18.160;2022-12-18T09:59:38;103251.65;;;-4.80;82.25
76229;BME280;65021;53.174;18.160;2022-12-18T10:02:32;103250.57;;;-4.77;82.36
76229;BME280;65021;53.174;18.160;2022-12-18T10:07:34;103238.84;;;-4.74;82.35
76229;BME280;65021;53.174;18.160;2022-12-18T10:10:42;103244.45;;;-4.84;82.01
76229;BME280;65021;53.174;18.160;2022-12-18T10:22:16;103259.54;;;-4.76;82.21
76229;BME280;65021;53.174;18.160;2022-12-18T10:24:55;103262.41;;;-4.69;82.17
76229;BME280;65021;53.174;18.160;2022-12-18T10:27:26;103261.86;;;-4.66;82.21
76229;BME280;65021;53.174;18.160;2022-12-18T10:29:54;103267.21;;;-4.65;82.11
76229;BME280;65021;53.174;18.160;2022-12-18T10:32:26;103267.14;;;-4.67;82.03
76229;BME280;65021;53.174;18.160;2022-12-18T10:34:55;103272.55;;;-4.73;81.93
76229;BME280;65021;53.174;18.160;2022-12-18T10:37:25;103277.23;;;-4.78;81.50
76229;BME280;65021;53.174;18.160;2022-12-18T10:40:08;103281.13;;;-4.83;81.55
76229;BME280;65021;53.174;18.160;2022-12-18T10:42:35;103287.02;;;-4.79;81.52
76229;BME280;65021;53.174;18.160;2022-12-18T10:45:14;103282.76;;;-4.71;81.68
76229;BME280;65021;53.174;18.160;2022-12-18T10:47:48;103273.58;;;-4.56;81.80
76229;BME280;65021;53.174;18.160;2022-12-18T10:50:31;103271.86;;;-4.51;81.64
76229;BME280;65021;53.174;18.160;2022-12-18T10:53:00;103275.48;;;-4.54;81.60
76229;BME280;65021;53.174;18.160;2022-12-18T10:55:38;103279.64;;;-4.57;81.56
76229;BME280;65021;53.174;18.160;2022-12-18T10:58:21;103277.24;;;-4.60;81.53
76229;BME280;65021;53.174;18.160;2022-12-18T11:03:38;103288.79;;;-4.72;81.48
76229;BME280;65021;53.174;18.160;2022-12-18T11:06:09;103299.28;;;-4.72;81.46
76229;BME280;65021;53.174;18.160;2022-12-18T11:08:37;103310.55;;;-4.63;81.48
76229;BME280;65021;53.174;18.160;2022-12-18T11:11:14;103314.02;;;-4.57;81.24
76229;BME280;65021;53.174;18.160;2022-12-18T11:14:04;103307.66;;;-4.54;81.15
76229;BME280;65021;53.174;18.160;2022-12-18T11:16:36;103303.52;;;-4.58;80.86
76229;BME280;65021;53.174;18.160;2022-12-18T11:19:23;103311.13;;;-4.64;81.08
76229;BME280;65021;53.174;18.160;2022-12-18T11:21:52;103308.48;;;-4.58;81.47
76229;BME280;65021;53.174;18.160;2022-12-18T11:24:34;103300.66;;;-4.51;81.53
76229;BME280;65021;53.174;18.160;2022-12-18T11:27:04;103298.67;;;-4.45;81.56
76229;BME280;65021;53.174;18.160;2022-12-18T11:29:35;103297.52;;;-4.38;81.49
76229;BME280;65021;53.174;18.160;2022-12-18T11:34:44;103292.55;;;-4.46;81.08
76229;BME280;65021;53.174;18.160;2022-12-18T11:37:13;103285.08;;;-4.48;81.10
76229;BME280;65021;53.174;18.160;2022-12-18T11:39:55;103284.83;;;-4.50;81.08
76229;BME280;65021;53.174;18.160;2022-12-18T11:42:57;103289.34;;;-4.53;81.04
76229;BME280;65021;53.174;18.160;2022-12-18T11:45:34;103286.19;;;-4.61;81.12
76229;BME280;65021;53.174;18.160;2022-12-18T11:48:17;103286.80;;;-4.62;81.23
76229;BME280;65021;53.174;18.160;2022-12-18T11:50:54;103287.70;;;-4.59;81.31
76229;BME280;65021;53.174;18.160;2022-12-18T11:53:24;103286.92;;;-4.58;81.23
76229;BME280;65021;53.174;18.160;2022-12-18T12:09:40;103301.25;;;-4.62;80.99
76229;BME280;65021;53.174;18.160;2022-12-18T12:12:36;103303.48;;;-4.62;81.14
76229;BME280;65021;53.174;18.160;2022-12-18T12:17:46;103308.63;;;-4.87;80.93
76229;BME280;65021;53.174;18.160;2022-12-18T12:36:57;103336.19;;;-4.98;81.29
76229;BME280;65021;53.174;18.160;2022-12-18T12:39:36;103340.59;;;-4.96;81.47
76229;BME280;65021;53.174;18.160;2022-12-18T12:42:15;103344.55;;;-4.95;81.35
76229;BME280;65021;53.174;18.160;2022-12-18T12:45:05;103355.08;;;-5.00;81.31
76229;BME280;65021;53.174;18.160;2022-12-18T12:47:37;103354.21;;;-5.00;81.34
76229;BME280;65021;53.174;18.160;2022-12-18T12:50:12;103358.93;;;-5.01;81.38
76229;BME280;65021;53.174;18.160;2022-12-18T12:52:47;103361.84;;;-5.04;81.52
76229;BME280;65021;53.174;18.160;2022-12-18T12:55:28;103365.88;;;-5.05;81.41
76229;BME280;65021;53.174;18.160;2022-12-18T12:58:18;103367.92;;;-5.06;81.45
76229;BME280;65021;53.174;18.160;2022-12-18T13:00:57;103361.66;;;-5.01;81.39
76229;BME280;65021;53.174;18.160;2022-12-18T13:08:59;103369.74;;;-5.03;81.06
76229;BME280;65021;53.174;18.160;2022-12-18T13:14:44;103369.95;;;-5.24;80.80
76229;BME280;65021;53.174;18.160;2022-12-18T13:17:29;103368.91;;;-5.35;80.88
76229;BME280;65021;53.174;18.160;2022-12-18T13:20:06;103372.27;;;-5.47;80.94
76229;BME280;65021;53.174;18.160;2022-12-18T13:25:36;103365.58;;;-5.64;81.00
76229;BME280;65021;53.174;18.160;2022-12-18T13:35:41;103364.90;;;-5.72;81.19
76229;BME280;65021;53.174;18.160;2022-12-18T13:38:35;103368.98;;;-5.74;81.25
76229;BME280;65021;53.174;18.160;2022-12-18T13:41:26;103369.90;;;-5.77;81.46
76229;BME280;65021;53.174;18.160;2022-12-18T13:43:54;103368.55;;;-5.80;81.58
76229;BME280;65021;53.174;18.160;2022-12-18T13:51:47;103372.09;;;-5.78;81.33
76229;BME280;65021;53.174;18.160;2022-12-18T13:56:50;103372.19;;;-5.73;81.26
76229;BME280;65021;53.174;18.160;2022-12-18T13:59:18;103367.90;;;-5.77;81.32
76229;BME280;65021;53.174;18.160;2022-12-18T14:06:46;103362.85;;;-5.91;81.64
76229;BME280;65021;53.174;18.160;2022-12-18T14:09:23;103374.66;;;-5.97;81.72
76229;BME280;65021;53.174;18.160;2022-12-18T14:11:51;103379.35;;;-6.04;81.65
76229;BME280;65021;53.174;18.160;2022-12-18T14:14:19;103382.13;;;-6.05;81.60
76229;BME280;65021;53.174;18.160;2022-12-18T14:16:46;103382.56;;;-6.03;81.63
76229;BME280;65021;53.174;18.160;2022-12-18T14:19:16;103380.76;;;-5.99;81.64
76229;BME280;65021;53.174;18.160;2022-12-18T14:21:48;103387.00;;;-5.98;81.57
76229;BME280;65021;53.174;18.160;2022-12-18T14:24:17;103396.91;;;-6.01;81.59
76229;BME280;65021;53.174;18.160;2022-12-18T14:26:45;103400.27;;;-6.07;81.57
76229;BME280;65021;53.174;18.160;2022-12-18T14:32:05;103385.41;;;-6.16;81.75
76229;BME280;65021;53.174;18.160;2022-12-18T14:34:32;103380.98;;;-6.18;81.78
76229;BME280;65021;53.174;18.160;2022-12-18T14:36:59;103392.50;;;-6.21;81.92
76229;BME280;65021;53.174;18.160;2022-12-18T14:39:25;103396.18;;;-6.22;81.89
76229;BME280;65021;53.174;18.160;2022-12-18T14:41:52;103398.58;;;-6.20;81.90